sensor_id;sensor_type;location;lat;lon;timestamp;pressure;altitude;pressure_sealevel;temperature;humidity
15050;BME280;7622;42.724;23.250;2022-10-15T00:00:35;94852.41;;;11.36;100.00
15050;BME280;7622;42.724;23.250;2022-10-15T00:03:02;94927.31;;;11.70;100.00
15050;BME280;7622;42.724;23.250;2022-10-15T00:05:29;94929.06;;;11.69;100.00
15050;BME280;7622;42.724;23.250;2022-10-15T00:07:56;94913.19;;;11.72;100.00
15050;BME280;7622;42.724;23.250;2022-10-15T00:10:22;94921.56;;;11.66;100.00
15050;BME280;7622;42.724;23.250;2022-10-15T00:12:50;94919.38;;;11.62;100.00
15050;BME280;7622;42.724;23.250;2022-10-15T00:15:17;94924.31;;;11.65;100.00
15050;BME280;7622;42.724;23.250;2022-10-15T00:17:44;94909.53;;;11.75;100.00
15050;BME280;7622;42.724;23.250;2022-10-15T00:20:11;94908.81;;;11.73;100.00
15050;BME280;7622;42.724;23.250;2022-10-15T00:22:38;94907.88;;;11.74;100.00
15050;BME280;7622;42.724;23.250;2022-10-15T00:25:05;94913.59;;;11.77;100.00
15050;BME280;7622;42.724;23.250;2022-10-15T00:27:32;94916.06;;;11.79;100.00
15050;BME280;7622;42.724;23.250;2022-10-15T00:30:00;94903.16;;;11.87;100.00
15050;BME280;7622;42.724;23.250;2022-10-15T00:32:28;94912.97;;;11.93;100.00
15050;BME280;7622;42.724;23.250;2022-10-15T00:34:55;94908.53;;;12.03;100.00
15050;BME280;7622;42.724;23.250;2022-10-15T00:37:22;94903.09;;;11.97;100.00
15050;BME280;7622;42.724;23.250;2022-10-15T00:39:48;94869.50;;;11.76;100.00
15050;BME280;7622;42.724;23.250;2022-10-15T00:42:16;94896.03;;;11.89;100.00
15050;BME280;7622;42.724;23.250;2022-10-15T00:44:52;94859.88;;;11.86;100.00
15050;BME280;7622;42.724;23.250;2022-10-15T00:47:24;94895.44;;;11.95;100.00
15050;BME280;7622;42.724;23.250;2022-10-15T00:50:00;94889.94;;;11.98;100.00
15050;BME280;7622;42.724;23.250;2022-10-15T00:52:33;94882.50;;;12.03;100.00
15050;BME280;7622;42.724;23.250;2022-10-15T00:55:06;94891.28;;;12.02;100.00
15050;BME280;7622;42.724;23.250;2022-10-15T00:57:35;94885.13;;;12.21;100.00
15050;BME280;7622;42.724;23.250;2022-10-15T01:00:06;94892.63;;;12.06;100.00
15050;BME280;7622;42.724;23.250;2022-10-15T01:02:35;94884.16;;;12.22;100.00
15050;BME280;7622;42.724;23.250;2022-10-15T01:05:02;94887.66;;;12.13;100.00
15050;BME280;7622;42.724;23.250;2022-10-15T01:07:29;94888.69;;;12.02;100.00
15050;BME280;7622;42.724;23.250;2022-10-15T01:09:56;94889.59;;;11.83;100.00
15050;BME280;7622;42.724;23.250;2022-10-15T01:12:31;94889.63;;;11.47;100.00
15050;BME280;7622;42.724;23.250;2022-10-15T01:15:07;94887.88;;;11.65;100.00
15050;BME280;7622;42.724;23.250;2022-10-15T01:17:40;94885.88;;;11.59;100.00
15050;BME280;7622;42.724;23.250;2022-10-15T01:20:25;94885.31;;;11.55;100.00
15050;BME280;7622;42.724;23.250;2022-10-15T01:23:12;94887.69;;;11.49;100.00
15050;BME280;7622;42.724;23.250;2022-10-15T01:25:47;94880.56;;;11.51;100.00
15050;BME280;7622;42.724;23.250;2022-10-15T01:28:32;94861.66;;;11.49;100.00
15050;BME280;7622;42.724;23.250;2022-10-15T01:31:12;94877.47;;;11.65;100.00
15050;BME280;7622;42.724;23.250;2022-10-15T01:33:43;94889.75;;;11.82;100.00
15050;BME280;7622;42.724;23.250;2022-10-15T01:36:16;94878.97;;;11.67;100.00
15050;BME280;7622;42.724;23.250;2022-10-15T01:38:51;94881.56;;;11.77;100.00
15050;BME280;7622;42.724;23.250;2022-10-15T01:41:25;94863.50;;;11.66;100.00
15050;BME280;7622;42.724;23.250;2022-10-15T01:43:58;94866.25;;;11.74;100.00
15050;BME280;7622;42.724;23.250;2022-10-15T01:46:31;94875.63;;;11.84;100.00
15050;BME280;7622;42.724;23.250;2022-10-15T01:49:01;94878.22;;;11.84;100.00
15050;BME280;7622;42.724;23.250;2022-10-15T01:51:32;94878.81;;;11.78;100.00
15050;BME280;7622;42.724;23.250;2022-10-15T01:54:01;94873.91;;;11.75;100.00
15050;BME280;7622;42.724;23.250;2022-10-15T01:56:31;94879.34;;;11.82;100.00
15050;BME280;7622;42.724;23.250;2022-10-15T01:59:01;94875.25;;;11.70;100.00
15050;BME280;7622;42.724;23.250;2022-10-15T02:01:29;94878.53;;;11.72;100.00
15050;BME280;7622;42.724;23.250;2022-10-15T02:03:56;94881.84;;;11.74;100.00
15050;BME280;7622;42.724;23.250;2022-10-15T02:06:27;94875.75;;;11.83;100.00
15050;BME280;7622;42.724;23.250;2022-10-15T02:09:02;94881.88;;;11.64;100.00
15050;BME280;7622;42.724;23.250;2022-10-15T02:11:42;94870.50;;;11.75;100.00
15050;BME280;7622;42.724;23.250;2022-10-15T02:14:15;94876.44;;;11.85;100.00
15050;BME280;7622;42.724;23.250;2022-10-15T02:16:52;94878.47;;;11.91;100.00
15050;BME280;7622;42.724;23.250;2022-10-15T02:19:26;94876.00;;;11.90;100.00
15050;BME280;7622;42.724;23.250;2022-10-15T02:21:59;94883.97;;;11.88;100.00
15050;BME280;7622;42.724;23.250;2022-10-15T02:24:33;94885.75;;;11.88;100.00
15050;BME280;7622;42.724;23.250;2022-10-15T02:27:02;94879.97;;;11.94;100.00
15050;BME280;7622;42.724;23.250;2022-10-15T02:29:32;94881.00;;;12.01;100.00
15050;BME280;7622;42.724;23.250;2022-10-15T02:32:02;94877.34;;;11.94;100.00
15050;BME280;7622;42.724;23.250;2022-10-15T02:34:32;94871.38;;;11.83;100.00
15050;BME280;7622;42.724;23.250;2022-10-15T02:37:01;94880.34;;;11.99;100.00
15050;BME280;7622;42.724;23.250;2022-10-15T02:39:29;94883.06;;;11.97;100.00
15050;BME280;7622;42.724;23.250;2022-10-15T02:41:56;94891.28;;;12.02;100.00
15050;BME280;7622;42.724;23.250;2022-10-15T02:44:23;94889.06;;;12.07;100.00
15050;BME280;7622;42.724;23.250;2022-10-15T02:46:50;94882.22;;;12.06;100.00
15050;BME280;7622;42.724;23.250;2022-10-15T02:49:18;94885.84;;;11.96;100.00
15050;BME280;7622;42.724;23.250;2022-10-15T02:51:45;94878.88;;;11.96;100.00
15050;BME280;7622;42.724;23.250;2022-10-15T02:54:12;94878.59;;;11.90;100.00
15050;BME280;7622;42.724;23.250;2022-10-15T02:56:41;94883.53;;;11.93;100.00
15050;BME280;7622;42.724;23.250;2022-10-15T02:59:10;94876.81;;;11.90;100.00
15050;BME280;7622;42.724;23.250;2022-10-15T03:01:36;94877.88;;;11.97;100.00
15050;BME280;7622;42.724;23.250;2022-10-15T03:04:03;94877.41;;;11.84;100.00
15050;BME280;7622;42.724;23.250;2022-10-15T03:06:31;94876.31;;;12.04;100.00
15050;BME280;7622;42.724;23.250;2022-10-15T03:08:58;94876.25;;;11.96;100.00
15050;BME280;7622;42.724;23.250;2022-10-15T03:11:25;94875.56;;;11.94;100.00
15050;BME280;7622;42.724;23.250;2022-10-15T03:13:52;94876.19;;;12.06;100.00
15050;BME280;7622;42.724;23.250;2022-10-15T03:16:18;94877.59;;;12.00;100.00
15050;BME280;7622;42.724;23.250;2022-10-15T03:18:45;94873.56;;;11.88;100.00
15050;BME280;7622;42.724;23.250;2022-10-15T03:21:12;94869.41;;;11.95;100.00
15050;BME280;7622;42.724;23.250;2022-10-15T03:23:40;94872.84;;;11.96;100.00
15050;BME280;7622;42.724;23.250;2022-10-15T03:26:07;94877.22;;;11.95;100.00
15050;BME280;7622;42.724;23.250;2022-10-15T03:28:34;94880.19;;;12.00;100.00
15050;BME280;7622;42.724;23.250;2022-10-15T03:31:00;94884.72;;;11.98;100.00
15050;BME280;7622;42.724;23.250;2022-10-15T03:33:27;94881.75;;;11.93;100.00
15050;BME280;7622;42.724;23.250;2022-10-15T03:35:54;94811.59;;;11.47;100.00
15050;BME280;7622;42.724;23.250;2022-10-15T03:38:22;94894.03;;;12.01;100.00
15050;BME280;7622;42.724;23.250;2022-10-15T03:40:50;94886.38;;;11.99;100.00
15050;BME280;7622;42.724;23.250;2022-10-15T03:43:16;94883.06;;;11.97;100.00
15050;BME280;7622;42.724;23.250;2022-10-15T03:45:43;94882.72;;;11.92;100.00
15050;BME280;7622;42.724;23.250;2022-10-15T03:48:10;94891.56;;;11.99;100.00
15050;BME280;7622;42.724;23.250;2022-10-15T03:50:37;94890.25;;;11.95;100.00
15050;BME280;7622;42.724;23.250;2022-10-15T03:53:04;94889.88;;;12.08;100.00
15050;BME280;7622;42.724;23.250;2022-10-15T03:55:31;94892.34;;;12.09;100.00
15050;BME280;7622;42.724;23.250;2022-10-15T03:57:59;94898.00;;;12.22;100.00
15050;BME280;7622;42.724;23.250;2022-10-15T04:00:27;94851.09;;;11.87;100.00
15050;BME280;7622;42.724;23.250;2022-10-15T04:02:54;94895.53;;;12.21;100.00
15050;BME280;7622;42.724;23.250;2022-10-15T04:05:21;94894.94;;;12.27;100.00
15050;BME280;7622;42.724;23.250;2022-10-15T04:07:47;94890.63;;;12.18;100.00
15050;BME280;7622;42.724;23.250;2022-10-15T04:10:14;94897.78;;;12.16;100.00
15050;BME280;7622;42.724;23.250;2022-10-15T04:12:41;94891.66;;;12.07;100.00
15050;BME280;7622;42.724;23.250;2022-10-15T04:15:09;94894.72;;;12.20;100.00
15050;BME280;7622;42.724;23.250;2022-10-15T04:17:36;94885.19;;;12.11;100.00
15050;BME280;7622;42.724;23.250;2022-10-15T04:20:03;94900.91;;;12.19;100.00
15050;BME280;7622;42.724;23.250;2022-10-15T04:22:30;94900.22;;;12.17;100.00
15050;BME280;7622;42.724;23.250;2022-10-15T04:24:57;94897.47;;;12.19;100.00
15050;BME280;7622;42.724;23.250;2022-10-15T04:27:24;94898.44;;;12.18;100.00
15050;BME280;7622;42.724;23.250;2022-10-15T04:29:50;94887.81;;;12.29;100.00
15050;BME280;7622;42.724;23.250;2022-10-15T04:32:18;94900.97;;;12.28;100.00
15050;BME280;7622;42.724;23.250;2022-10-15T04:34:45;94896.00;;;12.16;100.00
15050;BME280;7622;42.724;23.250;2022-10-15T04:37:12;94900.22;;;12.17;100.00
15050;BME280;7622;42.724;23.250;2022-10-15T04:39:39;94904.03;;;12.23;100.00
15050;BME280;7622;42.724;23.250;2022-10-15T04:42:06;94892.03;;;12.12;100.00
15050;BME280;7622;42.724;23.250;2022-10-15T04:44:33;94901.81;;;12.28;100.00
15050;BME280;7622;42.724;23.250;2022-10-15T04:47:00;94908.13;;;12.26;100.00
15050;BME280;7622;42.724;23.250;2022-10-15T04:49:28;94905.81;;;12.22;100.00
15050;BME280;7622;42.724;23.250;2022-10-15T04:51:54;94907.75;;;12.20;100.00
15050;BME280;7622;42.724;23.250;2022-10-15T04:54:21;94918.22;;;12.11;100.00
15050;BME280;7622;42.724;23.250;2022-10-15T04:56:48;94918.16;;;12.20;100.00
15050;BME280;7622;42.724;23.250;2022-10-15T04:59:15;94911.84;;;12.23;100.00
15050;BME280;7622;42.724;23.250;2022-10-15T05:01:41;94922.31;;;12.31;100.00
15050;BME280;7622;42.724;23.250;2022-10-15T05:04:09;94922.31;;;12.13;100.00
15050;BME280;7622;42.724;23.250;2022-10-15T05:06:37;94918.31;;;12.19;100.00
15050;BME280;7622;42.724;23.250;2022-10-15T05:09:04;94909.63;;;12.46;100.00
15050;BME280;7622;42.724;23.250;2022-10-15T05:11:34;94922.31;;;12.31;100.00
15050;BME280;7622;42.724;23.250;2022-10-15T05:14:01;94919.66;;;12.23;100.00
15050;BME280;7622;42.724;23.250;2022-10-15T05:16:29;94893.69;;;12.13;100.00
15050;BME280;7622;42.724;23.250;2022-10-15T05:18:57;94922.31;;;12.31;100.00
15050;BME280;7622;42.724;23.250;2022-10-15T05:21:25;94930.00;;;12.33;100.00
15050;BME280;7622;42.724;23.250;2022-10-15T05:23:53;94924.06;;;12.40;100.00
15050;BME280;7622;42.724;23.250;2022-10-15T05:26:22;94924.44;;;12.28;100.00
15050;BME280;7622;42.724;23.250;2022-10-15T05:28:50;94935.31;;;12.41;100.00
15050;BME280;7622;42.724;23.250;2022-10-15T05:31:18;94937.53;;;12.36;100.00
15050;BME280;7622;42.724;23.250;2022-10-15T05:33:46;94942.44;;;12.39;100.00
15050;BME280;7622;42.724;23.250;2022-10-15T05:36:14;94943.78;;;12.43;100.00
15050;BME280;7622;42.724;23.250;2022-10-15T05:38:42;94943.28;;;12.57;100.00
15050;BME280;7622;42.724;23.250;2022-10-15T05:41:11;94946.09;;;12.46;100.00
15050;BME280;7622;42.724;23.250;2022-10-15T05:43:37;94946.09;;;12.46;100.00
15050;BME280;7622;42.724;23.250;2022-10-15T05:46:05;94957.28;;;12.56;100.00
15050;BME280;7622;42.724;23.250;2022-10-15T05:48:31;94954.44;;;12.67;100.00
15050;BME280;7622;42.724;23.250;2022-10-15T05:51:02;94954.59;;;12.66;100.00
15050;BME280;7622;42.724;23.250;2022-10-15T05:53:29;94956.84;;;12.78;100.00
15050;BME280;7622;42.724;23.250;2022-10-15T05:55:56;94953.50;;;12.86;100.00
15050;BME280;7622;42.724;23.250;2022-10-15T05:58:25;94949.16;;;12.77;100.00
15050;BME280;7622;42.724;23.250;2022-10-15T06:00:54;94950.72;;;12.87;100.00
15050;BME280;7622;42.724;23.250;2022-10-15T06:03:21;94950.72;;;12.87;100.00
15050;BME280;7622;42.724;23.250;2022-10-15T06:05:48;94956.25;;;12.84;100.00
15050;BME280;7622;42.724;23.250;2022-10-15T06:08:15;94945.59;;;12.78;100.00
15050;BME280;7622;42.724;23.250;2022-10-15T06:10:42;94953.09;;;12.98;100.00
15050;BME280;7622;42.724;23.250;2022-10-15T06:13:09;94960.09;;;13.16;100.00
15050;BME280;7622;42.724;23.250;2022-10-15T06:15:39;94957.25;;;13.27;100.00
15050;BME280;7622;42.724;23.250;2022-10-15T06:18:06;94974.38;;;13.47;100.00
15050;BME280;7622;42.724;23.250;2022-10-15T06:20:34;94974.84;;;13.51;100.00
15050;BME280;7622;42.724;23.250;2022-10-15T06:23:03;94972.31;;;13.33;100.00
15050;BME280;7622;42.724;23.250;2022-10-15T06:25:30;94980.16;;;13.15;100.00
15050;BME280;7622;42.724;23.250;2022-10-15T06:28:00;94981.44;;;13.37;100.00
15050;BME280;7622;42.724;23.250;2022-10-15T06:30:27;94972.72;;;13.46;100.00
15050;BME280;7622;42.724;23.250;2022-10-15T06:32:56;94981.31;;;13.64;100.00
15050;BME280;7622;42.724;23.250;2022-10-15T06:35:24;94985.91;;;13.70;100.00
15050;BME280;7622;42.724;23.250;2022-10-15T06:37:54;94984.69;;;13.83;100.00
15050;BME280;7622;42.724;23.250;2022-10-15T06:40:21;94990.81;;;13.99;100.00
15050;BME280;7622;42.724;23.250;2022-10-15T06:42:48;94998.72;;;13.82;100.00
15050;BME280;7622;42.724;23.250;2022-10-15T06:45:14;94992.47;;;13.74;100.00
15050;BME280;7622;42.724;23.250;2022-10-15T06:47:41;94989.19;;;13.72;100.00
15050;BME280;7622;42.724;23.250;2022-10-15T06:50:10;94994.56;;;14.05;100.00
15050;BME280;7622;42.724;23.250;2022-10-15T06:52:36;94992.25;;;13.94;100.00
15050;BME280;7622;42.724;23.250;2022-10-15T06:55:04;95001.63;;;14.12;100.00
15050;BME280;7622;42.724;23.250;2022-10-15T06:57:31;95003.41;;;14.38;100.00
15050;BME280;7622;42.724;23.250;2022-10-15T06:59:57;95008.00;;;14.44;100.00
15050;BME280;7622;42.724;23.250;2022-10-15T07:02:24;95008.84;;;14.52;100.00
15050;BME280;7622;42.724;23.250;2022-10-15T07:04:51;95010.00;;;14.50;100.00
15050;BME280;7622;42.724;23.250;2022-10-15T07:07:19;95011.53;;;14.77;100.00
15050;BME280;7622;42.724;23.250;2022-10-15T07:09:46;95016.44;;;14.88;100.00
15050;BME280;7622;42.724;23.250;2022-10-15T07:12:12;95024.81;;;14.91;100.00
15050;BME280;7622;42.724;23.250;2022-10-15T07:14:40;95021.41;;;15.07;100.00
15050;BME280;7622;42.724;23.250;2022-10-15T07:17:08;95019.75;;;15.30;100.00
15050;BME280;7622;42.724;23.250;2022-10-15T07:19:39;95015.66;;;15.44;100.00
15050;BME280;7622;42.724;23.250;2022-10-15T07:22:06;95016.19;;;15.64;100.00
15050;BME280;7622;42.724;23.250;2022-10-15T07:24:35;95020.97;;;16.24;100.00
